Time;durP1;ratioP1;P1;durP2;ratioP2;P2;SDS_P1;SDS_P2;PMS_P1;PMS_P2;Temp;Humidity;BMP_temperature;BMP_pressure;BME280_temperature;BME280_humidity;BME280_pressure;Samples;Min_cycle;Max_cycle;Signal;HPM_P1;HPM_P2
2022/05/11 00:01:58;;;;;;;0.00;0.00;;;;;;;13.91;45.67;99311.19;5049428;28;20116;-76
2022/05/11 00:04:24;;;;;;;0.00;0.00;;;;;;;13.91;45.66;99306.63;5049674;28;20393;-76
2022/05/11 00:06:49;;;;;;;0.03;0.03;;;;;;;13.93;46.72;99307.13;5049696;28;20398;-77
2022/05/11 00:09:16;;;;;;;0.00;0.00;;;;;;;13.87;46.91;99302.91;5049921;28;20028;-78
2022/05/11 00:11:42;;;;;;;0.00;0.00;;;;;;;13.87;46.96;99307.50;5049080;28;20037;-78
2022/05/11 00:14:09;;;;;;;0.00;0.00;;;;;;;13.80;46.93;99304.38;5029815;28;20040;-77
2022/05/11 00:16:35;;;;;;;0.00;0.00;;;;;;;13.73;46.77;99304.72;5031306;28;20030;-75
2022/05/11 00:19:01;;;;;;;0.00;0.00;;;;;;;13.72;46.11;99303.94;5038529;28;20035;-76
2022/05/11 00:21:26;;;;;;;0.00;0.00;;;;;;;13.64;46.14;99293.06;5051134;28;20100;-76
2022/05/11 00:23:53;;;;;;;0.00;0.00;;;;;;;13.58;46.21;99297.69;5037768;28;20121;-76
2022/05/11 00:26:19;;;;;;;0.10;0.10;;;;;;;13.51;46.62;99300.75;5031137;28;20064;-77
2022/05/11 00:28:44;;;;;;;0.10;0.10;;;;;;;13.44;46.80;99306.47;5049822;28;20037;-77
2022/05/11 00:31:10;;;;;;;0.00;0.00;;;;;;;13.34;46.73;99298.50;5050394;28;20482;-76
2022/05/11 00:33:36;;;;;;;0.00;0.00;;;;;;;13.25;46.70;99301.00;5048225;28;20040;-76
2022/05/11 00:36:03;;;;;;;0.00;0.00;;;;;;;13.16;46.89;99296.56;5030474;28;20540;-76
2022/05/11 00:38:30;;;;;;;0.00;0.00;;;;;;;13.09;46.92;99292.34;5031187;28;20170;-78
2022/05/11 00:41:00;;;;;;;0.10;0.10;;;;;;;13.00;47.36;99290.56;5029043;28;20126;-78
2022/05/11 00:43:34;;;;;;;0.10;0.10;;;;;;;12.96;47.33;99293.03;5047966;28;20055;-77
2022/05/11 00:46:25;;;;;;;0.00;0.00;;;;;;;12.87;47.76;99289.38;5049199;28;20035;-77
2022/05/11 00:51:47;;;;;;;0.00;0.00;;;;;;;12.72;47.65;99290.31;5042605;28;20044;-83
2022/05/11 00:54:15;;;;;;;0.00;0.00;;;;;;;12.69;47.84;99294.38;5036200;28;20099;-82
2022/05/11 00:56:50;;;;;;;0.00;0.00;;;;;;;12.64;48.33;99294.44;5035586;28;20051;-79
2022/05/11 00:59:25;;;;;;;0.00;0.00;;;;;;;12.61;48.47;99311.13;5049472;28;20473;-85
2022/05/11 01:01:51;;;;;;;0.00;0.00;;;;;;;12.58;48.52;99296.34;5042453;28;20055;-85
2022/05/11 01:04:20;;;;;;;0.00;0.00;;;;;;;12.54;48.40;99283.81;5029443;28;20053;-84
2022/05/11 01:06:45;;;;;;;;;;;;;;;12.56;48.13;99287.00;5029978;28;20457;-82
2022/05/11 01:09:12;;;;;;;0.00;0.00;;;;;;;12.51;48.95;99279.00;5029211;28;19952;-83
2022/05/11 01:11:59;;;;;;;0.00;0.00;;;;;;;12.48;48.99;99273.09;5037260;28;20061;-82
2022/05/11 01:14:31;;;;;;;0.00;0.00;;;;;;;12.44;49.10;99272.09;5045973;28;20037;-82
2022/05/11 01:16:58;;;;;;;0.10;0.10;;;;;;;12.42;48.77;99279.59;5030339;28;20026;-81
2022/05/11 01:19:28;;;;;;;0.10;0.10;;;;;;;12.38;49.15;99277.75;5033137;28;20029;-84
2022/05/11 01:22:03;;;;;;;0.00;0.00;;;;;;;12.31;49.55;99286.16;5032818;28;20488;-87
2022/05/11 01:24:40;;;;;;;0.10;0.10;;;;;;;12.26;49.23;99278.94;5048966;28;20420;-87
2022/05/11 01:27:25;;;;;;;0.10;0.10;;;;;;;12.28;49.34;99284.84;5052046;28;20029;-87
2022/05/11 01:29:51;;;;;;;0.10;0.10;;;;;;;12.23;49.03;99279.53;5052647;28;20036;-87
2022/05/11 01:32:18;;;;;;;0.00;0.00;;;;;;;12.19;49.06;99275.78;5052860;28;20067;-87
2022/05/11 01:34:44;;;;;;;0.00;0.00;;;;;;;12.13;49.34;99268.88;5052804;28;20119;-86
2022/05/11 01:37:09;;;;;;;0.00;0.00;;;;;;;12.11;49.27;99273.72;5051761;28;20120;-86
2022/05/11 01:39:35;;;;;;;0.00;0.00;;;;;;;12.07;49.11;99270.81;5052676;28;20032;-86
2022/05/11 01:42:00;;;;;;;0.10;0.10;;;;;;;12.03;48.98;99271.63;5052304;28;20068;-84
2022/05/11 01:44:25;;;;;;;0.00;0.00;;;;;;;12.01;49.25;99272.72;5050810;28;20032;-78
2022/05/11 01:46:59;;;;;;;0.00;0.00;;;;;;;12.00;49.70;99279.16;5052350;28;20033;-82
2022/05/11 01:49:27;;;;;;;0.00;0.00;;;;;;;11.93;48.97;99275.16;5061915;28;20030;-79
2022/05/11 01:51:53;;;;;;;0.00;0.00;;;;;;;11.91;49.22;99275.41;5045954;28;20097;-78
2022/05/11 01:54:18;;;;;;;0.00;0.00;;;;;;;11.87;49.19;99277.06;5055653;28;20128;-79
2022/05/11 01:56:44;;;;;;;0.00;0.00;;;;;;;11.87;49.03;99284.31;5033640;28;20048;-81
2022/05/11 01:59:10;;;;;;;0.00;0.00;;;;;;;11.80;49.04;99281.94;5041398;28;20060;-85
2022/05/11 02:01:37;;;;;;;0.08;0.08;;;;;;;11.74;48.97;99283.06;5034798;28;20033;-84
2022/05/11 02:04:03;;;;;;;0.03;0.03;;;;;;;11.73;49.04;99284.94;5038023;28;20029;-82
2022/05/11 02:09:13;;;;;;;0.00;0.00;;;;;;;11.64;48.91;99283.91;5033544;28;20512;-80
2022/05/11 02:11:39;;;;;;;0.00;0.00;;;;;;;11.61;48.80;99285.28;5033473;28;20033;-80
2022/05/11 02:14:05;;;;;;;0.10;0.10;;;;;;;11.59;48.87;99290.09;5033549;28;20030;-81
2022/05/11 02:16:32;;;;;;;0.00;0.00;;;;;;;11.53;48.67;99283.16;5035050;28;20046;-85
2022/05/11 02:18:57;;;;;;;0.00;0.00;;;;;;;11.54;48.72;99290.91;5041190;28;20049;-81
2022/05/11 02:21:24;;;;;;;0.00;0.00;;;;;;;11.52;49.57;99289.59;5032084;28;20029;-81
2022/05/11 02:23:50;;;;;;;0.00;0.00;;;;;;;11.53;49.33;99294.69;5036964;28;20055;-82
2022/05/11 02:26:16;;;;;;;0.00;0.00;;;;;;;11.51;49.22;99285.31;5051329;28;20405;-84
2022/05/11 02:28:42;;;;;;;0.08;0.08;;;;;;;11.51;49.33;99278.09;5049865;28;20484;-85
2022/05/11 02:31:09;;;;;;;0.00;0.00;;;;;;;11.53;50.16;99288.53;5051332;28;20129;-82
2022/05/11 02:33:35;;;;;;;0.00;0.00;;;;;;;11.52;50.36;99284.25;5068108;28;20480;-82
2022/05/11 02:36:00;;;;;;;0.20;0.20;;;;;;;11.51;50.35;99291.47;5047954;28;20061;-82
2022/05/11 02:38:29;;;;;;;0.00;0.00;;;;;;;11.54;50.18;99288.25;5051723;28;20197;-87
2022/05/11 02:40:55;;;;;;;0.00;0.00;;;;;;;11.60;50.16;99289.03;5067501;28;20041;-87
2022/05/11 02:43:21;;;;;;;0.10;0.10;;;;;;;11.56;50.00;99279.94;5068225;28;20520;-86
2022/05/11 02:45:49;;;;;;;0.00;0.00;;;;;;;11.49;49.87;99279.44;5050665;28;20025;-82
2022/05/11 02:48:19;;;;;;;0.00;0.00;;;;;;;11.51;49.86;99283.44;5047727;28;20034;-85
2022/05/11 02:50:49;;;;;;;0.00;0.00;;;;;;;11.51;50.18;99283.44;5050466;28;20045;-90
2022/05/11 02:53:16;;;;;;;0.00;0.00;;;;;;;11.48;50.89;99284.00;5052288;28;20025;-86
2022/05/11 02:55:45;;;;;;;0.00;0.00;;;;;;;11.46;50.78;99286.16;5051348;28;20094;-88
2022/05/11 02:58:12;;;;;;;0.00;0.00;;;;;;;11.42;50.64;99282.41;5050604;28;20029;-85
2022/05/11 03:00:40;;;;;;;0.00;0.00;;;;;;;11.34;50.89;99275.75;5067930;28;20048;-88
2022/05/11 03:03:07;;;;;;;0.00;0.00;;;;;;;11.33;50.21;99287.56;5067594;28;20693;-89
2022/05/11 03:05:34;;;;;;;0.00;0.00;;;;;;;11.28;50.20;99284.91;5067701;28;20044;-88
2022/05/11 03:08:00;;;;;;;0.08;0.08;;;;;;;11.22;50.46;99286.00;5049921;28;20033;-84
2022/05/11 03:10:25;;;;;;;0.00;0.00;;;;;;;11.15;50.22;99288.16;5050733;28;20095;-81
2022/05/11 03:12:52;;;;;;;0.00;0.00;;;;;;;11.13;50.65;99284.94;5052357;28;20037;-82
2022/05/11 03:15:18;;;;;;;0.00;0.00;;;;;;;11.13;50.80;99291.13;5050529;28;20125;-85
2022/05/11 03:17:43;;;;;;;0.00;0.00;;;;;;;11.14;51.00;99284.66;5033463;28;20116;-80
2022/05/11 03:20:10;;;;;;;0.10;0.10;;;;;;;11.26;50.76;99286.25;5042645;28;20032;-80
2022/05/11 03:22:36;;;;;;;0.10;0.10;;;;;;;11.40;50.83;99286.44;5050721;28;20025;-79
2022/05/11 03:25:01;;;;;;;0.00;0.00;;;;;;;11.56;50.39;99287.16;5066323;28;20028;-78
2022/05/11 03:27:27;;;;;;;0.00;0.00;;;;;;;11.76;50.14;99286.25;5046958;28;20022;-78
2022/05/11 03:29:54;;;;;;;0.00;0.00;;;;;;;11.96;49.70;99285.31;5030378;28;20029;-79
2022/05/11 03:35:05;;;;;;;0.30;0.30;;;;;;;12.55;48.54;99288.88;5046581;28;20047;-81
2022/05/11 03:37:31;;;;;;;0.00;0.00;;;;;;;12.85;48.09;99288.88;5050845;28;20053;-81
2022/05/11 03:39:57;;;;;;;0.00;0.00;;;;;;;13.17;47.41;99288.25;5050274;28;20071;-79
2022/05/11 03:42:28;;;;;;;0.00;0.00;;;;;;;13.55;46.58;99287.50;5050340;28;20056;-78
2022/05/11 03:44:55;;;;;;;0.00;0.00;;;;;;;13.97;45.86;99293.91;5041334;28;20385;-84
2022/05/11 03:47:21;;;;;;;0.10;0.10;;;;;;;14.35;44.62;99290.34;5032396;28;20025;-85
2022/05/11 03:49:46;;;;;;;0.00;0.00;;;;;;;14.77;43.83;99299.34;5045463;28;20032;-85
2022/05/11 03:52:14;;;;;;;0.10;0.10;;;;;;;15.19;43.02;99300.13;5030024;28;20028;-83
2022/05/11 03:54:39;;;;;;;0.10;0.10;;;;;;;15.64;42.20;99304.09;5036485;28;20021;-83
2022/05/11 03:57:05;;;;;;;0.00;0.00;;;;;;;16.10;40.68;99302.25;5049909;28;20028;-81
2022/05/11 03:59:30;;;;;;;0.00;0.00;;;;;;;16.58;40.09;99295.41;5050097;28;20040;-82
2022/05/11 04:01:55;;;;;;;0.00;0.00;;;;;;;17.02;39.02;99293.72;5049803;28;20120;-81
2022/05/11 04:04:21;;;;;;;0.30;0.30;;;;;;;17.50;38.65;99285.88;5049840;28;20151;-83
2022/05/11 04:06:46;;;;;;;0.00;0.00;;;;;;;17.99;37.69;99288.47;5049796;28;20025;-84
2022/05/11 04:09:12;;;;;;;0.00;0.00;;;;;;;18.48;37.00;99299.06;5049392;28;20033;-83
2022/05/11 04:11:37;;;;;;;0.10;0.10;;;;;;;18.92;35.89;99290.81;5049864;28;20029;-83
2022/05/11 04:14:03;;;;;;;0.00;0.00;;;;;;;19.39;35.25;99298.88;5047730;28;20029;-81
2022/05/11 04:16:28;;;;;;;0.00;0.00;;;;;;;19.81;34.54;99293.47;5049795;28;20469;-86
2022/05/11 04:18:54;;;;;;;0.10;0.10;;;;;;;20.25;33.96;99309.41;5048729;28;20071;-79
2022/05/11 04:21:19;;;;;;;0.10;0.10;;;;;;;20.72;33.15;99311.00;5049796;28;20550;-81
2022/05/11 04:23:45;;;;;;;0.00;0.00;;;;;;;21.14;32.40;99304.59;5048791;28;20124;-86
2022/05/11 04:26:13;;;;;;;0.03;0.03;;;;;;;21.36;31.93;99305.22;5048472;28;20071;-76
2022/05/11 04:28:43;;;;;;;0.00;0.00;;;;;;;21.49;31.33;99314.97;5050944;28;20111;-77
2022/05/11 04:31:10;;;;;;;0.00;0.00;;;;;;;21.55;30.94;99313.59;5046516;28;20519;-78
2022/05/11 04:33:36;;;;;;;0.00;0.00;;;;;;;21.77;30.74;99316.19;5049825;28;20083;-80
2022/05/11 04:36:03;;;;;;;0.00;0.00;;;;;;;22.00;30.49;99311.00;5049437;28;20602;-79
2022/05/11 04:38:29;;;;;;;0.00;0.00;;;;;;;22.17;30.02;99316.16;5066088;28;20408;-79
2022/05/11 04:40:54;;;;;;;0.10;0.10;;;;;;;22.49;29.90;99318.19;5065134;28;20403;-80
2022/05/11 04:43:20;;;;;;;0.08;0.08;;;;;;;22.82;29.32;99309.66;5066197;28;20025;-79
2022/05/11 04:45:47;;;;;;;0.00;0.00;;;;;;;23.17;28.89;99319.09;5066104;28;20040;-80
2022/05/11 04:48:15;;;;;;;0.00;0.00;;;;;;;23.45;28.49;99299.84;5048996;28;20405;-80
2022/05/11 04:50:43;;;;;;;0.40;0.40;;;;;;;23.74;28.21;99318.78;5049055;28;20031;-81
2022/05/11 04:53:09;;;;;;;0.00;0.00;;;;;;;24.01;27.95;99327.16;5068026;28;20041;-80
2022/05/11 04:55:35;;;;;;;0.00;0.00;;;;;;;24.21;27.73;99334.19;5053253;28;20031;-80
2022/05/11 04:58:00;;;;;;;0.00;0.00;;;;;;;24.39;27.44;99331.81;5069766;28;20021;-78
2022/05/11 05:00:26;;;;;;;0.00;0.00;;;;;;;24.46;26.92;99331.94;5053444;28;20071;-78
2022/05/11 05:02:52;;;;;;;0.00;0.00;;;;;;;24.61;26.87;99341.19;5069644;28;20040;-78
2022/05/11 05:05:18;;;;;;;0.00;0.00;;;;;;;24.73;27.30;99340.25;5069647;28;20431;-78
2022/05/11 05:07:44;;;;;;;0.00;0.00;;;;;;;24.67;27.67;99338.16;5069702;28;20025;-78
2022/05/11 05:10:12;;;;;;;0.00;0.00;;;;;;;24.68;28.20;99340.56;5069558;28;20400;-78
2022/05/11 05:12:38;;;;;;;0.00;0.00;;;;;;;24.78;27.99;99342.66;5053095;28;20021;-78
2022/05/11 05:15:04;;;;;;;0.00;0.00;;;;;;;24.55;28.69;99348.09;5054252;28;20483;-79
2022/05/11 05:17:30;;;;;;;0.17;0.17;;;;;;;24.46;29.15;99347.53;5054351;28;20028;-80
2022/05/11 05:19:55;;;;;;;0.00;0.00;;;;;;;24.47;28.95;99357.31;5069327;28;20619;-79
2022/05/11 05:22:21;;;;;;;0.00;0.00;;;;;;;24.53;29.30;99344.94;5069577;28;20029;-79
2022/05/11 05:24:46;;;;;;;0.00;0.00;;;;;;;24.76;29.01;99349.66;5054066;28;20025;-79
2022/05/11 05:27:13;;;;;;;0.00;0.00;;;;;;;25.00;28.89;99351.25;5069201;28;20036;-79
2022/05/11 05:32:24;;;;;;;0.10;0.10;;;;;;;25.67;28.07;99357.31;5054167;28;20615;-79
2022/05/11 05:34:49;;;;;;;0.00;0.00;;;;;;;25.90;27.61;99359.97;5052721;28;20210;-79
2022/05/11 05:37:17;;;;;;;0.00;0.00;;;;;;;26.24;27.51;99354.53;5068947;28;20465;-80
2022/05/11 05:39:43;;;;;;;0.00;0.00;;;;;;;26.45;27.14;99362.22;5069075;28;20021;-79
2022/05/11 05:42:09;;;;;;;0.00;0.00;;;;;;;26.65;26.88;99359.28;5068849;28;20547;-79
2022/05/11 05:44:37;;;;;;;0.00;0.00;;;;;;;26.89;26.68;99352.47;5069273;28;20108;-79
2022/05/11 05:47:07;;;;;;;0.00;0.00;;;;;;;27.08;26.13;99356.94;5068963;28;20025;-79
2022/05/11 05:49:33;;;;;;;0.00;0.00;;;;;;;27.34;25.33;99360.63;5054248;28;20100;-79
2022/05/11 05:51:59;;;;;;;0.00;0.00;;;;;;;27.63;25.18;99358.88;5068829;28;20033;-80
2022/05/11 05:54:25;;;;;;;0.20;0.20;;;;;;;27.70;25.05;99360.13;5052289;28;20108;-79
2022/05/11 05:56:51;;;;;;;0.17;0.15;;;;;;;27.59;24.36;99368.28;5068749;28;20029;-79
2022/05/11 05:59:18;;;;;;;0.00;0.00;;;;;;;27.67;24.98;99369.13;5053676;28;20396;-78
2022/05/11 06:01:43;;;;;;;0.00;0.00;;;;;;;27.89;24.66;99368.06;5068757;28;20021;-80
2022/05/11 06:04:09;;;;;;;0.03;0.03;;;;;;;27.80;24.24;99370.38;5068239;28;20044;-80
2022/05/11 06:06:34;;;;;;;0.00;0.00;;;;;;;27.83;24.74;99363.31;5068830;28;20493;-80
2022/05/11 06:09:00;;;;;;;0.00;0.00;;;;;;;27.99;24.54;99369.28;5068715;28;20040;-80
2022/05/11 06:11:25;;;;;;;0.00;0.00;;;;;;;27.99;24.63;99365.72;5068791;28;20594;-80
2022/05/11 06:13:51;;;;;;;0.00;0.00;;;;;;;28.02;24.62;99370.47;5052822;28;20029;-80
2022/05/11 06:16:16;;;;;;;0.00;0.00;;;;;;;27.91;24.80;99371.19;5068651;28;20428;-80
2022/05/11 06:18:44;;;;;;;0.10;0.10;;;;;;;27.75;24.80;99378.97;5068547;28;20063;-80
2022/05/11 06:21:10;;;;;;;;;;;;;;;27.74;25.37;99372.69;5068717;28;20037;-80
2022/05/11 06:23:36;;;;;;;0.30;0.30;;;;;;;27.71;24.81;99372.66;5051551;28;20004;-80
2022/05/11 06:26:02;;;;;;;0.00;0.00;;;;;;;27.41;25.48;99379.16;5068227;28;20127;-80
2022/05/11 06:28:27;;;;;;;0.00;0.00;;;;;;;27.29;26.04;99372.78;5068409;28;20108;-80
2022/05/11 06:30:53;;;;;;;0.30;0.30;;;;;;;27.15;26.47;99378.16;5068137;28;20029;-80
2022/05/11 06:33:18;;;;;;;0.10;0.10;;;;;;;26.81;26.68;99381.00;5068367;28;20037;-81
2022/05/11 06:35:45;;;;;;;0.20;0.15;;;;;;;26.73;27.21;99371.88;5068313;28;20131;-81
2022/05/11 06:38:11;;;;;;;0.00;0.00;;;;;;;26.69;27.01;99379.28;5068017;28;20071;-80
2022/05/11 06:40:37;;;;;;;0.00;0.00;;;;;;;26.46;27.23;99379.47;5067977;28;20124;-80
2022/05/11 06:43:04;;;;;;;0.10;0.10;;;;;;;26.29;27.86;99378.09;5067941;28;20041;-80
2022/05/11 06:45:30;;;;;;;0.08;0.08;;;;;;;26.20;28.12;99370.94;5051600;28;20166;-80
2022/05/11 06:47:56;;;;;;;0.00;0.00;;;;;;;26.03;28.18;99374.25;5051397;28;20028;-80
2022/05/11 06:50:24;;;;;;;0.10;0.10;;;;;;;25.92;28.10;99374.09;5068245;28;20029;-80
2022/05/11 06:52:53;;;;;;;0.00;0.00;;;;;;;25.84;28.54;99375.16;5067557;28;20028;-79
2022/05/11 07:00:48;;;;;;;0.00;0.00;;;;;;;25.55;28.64;99369.31;5052683;28;20120;-80
2022/05/11 07:03:14;;;;;;;0.00;0.00;;;;;;;25.45;28.46;99365.25;5052195;28;20025;-80
2022/05/11 07:05:41;;;;;;;0.00;0.00;;;;;;;25.37;28.20;99371.75;5067634;28;20525;-80
2022/05/11 07:08:07;;;;;;;0.00;0.00;;;;;;;25.22;28.78;99370.75;5067497;28;20404;-80
2022/05/11 07:10:42;;;;;;;0.20;0.20;;;;;;;25.04;29.39;99368.50;5067670;28;20268;-80
2022/05/11 07:13:09;;;;;;;0.00;0.00;;;;;;;24.98;29.68;99363.72;5050589;28;20032;-80
2022/05/11 07:15:34;;;;;;;0.00;0.00;;;;;;;24.95;29.82;99362.50;5066743;28;20472;-80
2022/05/11 07:18:03;;;;;;;0.00;0.00;;;;;;;24.81;30.38;99362.25;5067390;28;20040;-80
2022/05/11 07:20:35;;;;;;;0.00;0.00;;;;;;;24.78;29.93;99359.09;5067432;28;20025;-80
2022/05/11 07:23:02;;;;;;;0.00;0.00;;;;;;;24.77;30.24;99370.41;5050476;28;20031;-80
2022/05/11 07:25:28;;;;;;;0.00;0.00;;;;;;;24.55;29.73;99369.97;5067198;28;20032;-80
2022/05/11 07:27:55;;;;;;;0.00;0.00;;;;;;;24.29;29.98;99370.63;5066919;28;20025;-80
2022/05/11 07:30:26;;;;;;;0.00;0.00;;;;;;;24.20;30.54;99370.09;5050517;28;20024;-80
2022/05/11 07:32:52;;;;;;;0.00;0.00;;;;;;;24.11;30.68;99370.31;5066839;28;20037;-80
2022/05/11 07:35:18;;;;;;;0.10;0.10;;;;;;;23.93;31.30;99367.97;5050486;28;20475;-80
2022/05/11 07:37:47;;;;;;;0.00;0.00;;;;;;;23.92;31.44;99371.03;5050404;28;20452;-80
2022/05/11 07:40:14;;;;;;;0.00;0.00;;;;;;;23.80;32.03;99364.56;5066497;28;20036;-80
2022/05/11 07:42:40;;;;;;;0.00;0.00;;;;;;;23.66;31.63;99372.44;5066802;28;20462;-79
2022/05/11 07:45:06;;;;;;;0.13;0.13;;;;;;;23.54;32.30;99367.88;5049683;28;20068;-80
2022/05/11 07:47:33;;;;;;;0.00;0.00;;;;;;;23.52;32.57;99364.72;5066766;28;20467;-79
2022/05/11 07:49:58;;;;;;;0.00;0.00;;;;;;;23.43;32.49;99362.19;5066588;28;20037;-79
2022/05/11 07:52:24;;;;;;;0.35;0.35;;;;;;;23.44;33.01;99368.44;5050083;28;20079;-80
2022/05/11 07:54:49;;;;;;;0.15;0.15;;;;;;;23.41;32.89;99361.75;5066540;28;20025;-79
2022/05/11 07:59:59;;;;;;;0.00;0.00;;;;;;;23.07;34.13;99360.50;5051105;28;20101;-79
2022/05/11 08:02:31;;;;;;;0.45;0.45;;;;;;;22.96;34.37;99368.44;5066678;28;20029;-80
2022/05/11 08:05:03;;;;;;;0.00;0.00;;;;;;;22.94;34.94;99360.59;5066231;28;20025;-80
2022/05/11 08:07:39;;;;;;;0.00;0.00;;;;;;;22.90;36.06;99358.94;5066550;28;20082;-79
2022/05/11 08:10:06;;;;;;;0.08;0.08;;;;;;;22.90;36.54;99348.03;5066229;28;20029;-80
2022/05/11 08:12:31;;;;;;;0.10;0.10;;;;;;;22.84;35.71;99359.19;5066420;28;20029;-80
2022/05/11 08:14:57;;;;;;;0.15;0.15;;;;;;;22.86;35.31;99350.66;5066430;28;20031;-80
2022/05/11 08:17:32;;;;;;;0.10;0.10;;;;;;;23.02;35.36;99353.38;5066349;28;20024;-80
2022/05/11 08:19:59;;;;;;;0.00;0.00;;;;;;;23.05;35.22;99352.69;5049542;28;20025;-80
2022/05/11 08:22:25;;;;;;;0.00;0.00;;;;;;;23.10;35.41;99352.41;5066343;28;20399;-80
2022/05/11 08:24:51;;;;;;;0.00;0.00;;;;;;;23.17;34.65;99352.63;5065704;28;20294;-80
2022/05/11 08:27:24;;;;;;;0.00;0.00;;;;;;;23.20;33.73;99355.81;5066385;28;20029;-80
2022/05/11 08:35:19;;;;;;;0.10;0.10;;;;;;;22.91;35.80;99361.31;5050839;28;20048;-80
2022/05/11 08:37:45;;;;;;;0.22;0.22;;;;;;;22.83;34.02;99356.84;5066231;28;20139;-80
2022/05/11 08:40:41;;;;;;;0.30;0.30;;;;;;;22.81;35.36;99364.56;5066252;28;20428;-80
2022/05/11 08:43:12;;;;;;;0.00;0.00;;;;;;;22.63;34.67;99351.28;5066014;28;20036;-80
2022/05/11 08:45:57;;;;;;;0.15;0.15;;;;;;;22.67;35.50;99362.28;5066011;28;20083;-80
2022/05/11 08:48:51;;;;;;;0.10;0.10;;;;;;;22.61;33.60;99355.50;5066270;28;20429;-80
2022/05/11 08:51:41;;;;;;;0.00;0.00;;;;;;;22.43;34.96;99360.47;5066180;28;20523;-80
2022/05/11 08:54:24;;;;;;;0.93;0.93;;;;;;;22.29;34.60;99360.81;5065876;28;20036;-79
2022/05/11 08:56:52;;;;;;;0.68;0.68;;;;;;;22.42;35.64;99358.88;5066013;28;20500;-79
2022/05/11 08:59:23;;;;;;;0.05;0.05;;;;;;;22.44;34.14;99357.38;5050651;28;20025;-79
2022/05/11 09:01:54;;;;;;;0.00;0.00;;;;;;;22.47;33.54;99355.88;5066137;28;20039;-80
2022/05/11 09:04:23;;;;;;;0.60;0.60;;;;;;;22.43;31.42;99352.28;5066063;28;20029;-79
2022/05/11 09:06:49;;;;;;;0.65;0.65;;;;;;;22.52;31.80;99353.72;5065719;28;20027;-79
2022/05/11 09:09:16;;;;;;;0.00;0.00;;;;;;;22.60;31.66;99349.22;5065900;28;20120;-79
2022/05/11 09:11:54;;;;;;;0.05;0.05;;;;;;;22.70;30.61;99354.19;5066027;28;20029;-79
2022/05/11 09:14:33;;;;;;;0.00;0.00;;;;;;;22.83;31.05;99349.44;5049265;28;20033;-78
2022/05/11 09:16:59;;;;;;;0.43;0.43;;;;;;;23.01;30.70;99358.06;5049005;28;20029;-79
2022/05/11 09:19:33;;;;;;;0.22;0.22;;;;;;;23.09;29.62;99350.06;5065988;28;20473;-79
2022/05/11 09:22:10;;;;;;;0.15;0.15;;;;;;;23.26;29.96;99348.94;5048790;28;20036;-79
2022/05/11 09:24:48;;;;;;;0.15;0.15;;;;;;;23.41;30.15;99356.31;5065694;28;20028;-78
2022/05/11 09:27:32;;;;;;;0.15;0.15;;;;;;;23.55;28.32;99355.81;5065648;28;20029;-78
2022/05/11 09:30:05;;;;;;;0.00;0.00;;;;;;;23.62;28.37;99356.00;5065332;28;20488;-79
2022/05/11 09:32:37;;;;;;;0.03;0.03;;;;;;;23.57;27.91;99352.72;5065760;28;20032;-79
2022/05/11 09:35:33;;;;;;;0.05;0.05;;;;;;;23.57;28.50;99353.53;5048745;28;20021;-79
2022/05/11 09:38:01;;;;;;;0.00;0.00;;;;;;;23.58;28.99;99355.13;5047309;28;20420;-78
2022/05/11 09:40:29;;;;;;;0.20;0.20;;;;;;;23.55;28.18;99355.06;5052538;28;20029;-79
2022/05/11 09:43:01;;;;;;;0.03;0.03;;;;;;;23.56;28.83;99360.16;5069195;28;20022;-79
2022/05/11 09:45:47;;;;;;;0.00;0.00;;;;;;;23.51;29.30;99352.25;5068879;28;20029;-79
2022/05/11 09:48:32;;;;;;;0.10;0.10;;;;;;;23.58;29.83;99357.06;5068875;28;20032;-79
2022/05/11 09:51:19;;;;;;;0.00;0.00;;;;;;;23.64;30.42;99350.97;5052260;28;20107;-78
2022/05/11 09:53:53;;;;;;;0.17;0.17;;;;;;;23.68;29.68;99348.31;5052536;28;20120;-78
2022/05/11 09:56:34;;;;;;;0.00;0.00;;;;;;;23.74;31.03;99354.28;5069038;28;20488;-78
2022/05/11 09:59:18;;;;;;;0.10;0.10;;;;;;;23.78;30.79;99346.97;5068448;28;20029;-78
2022/05/11 10:01:45;;;;;;;0.10;0.10;;;;;;;23.87;30.60;99346.75;5068842;28;20124;-78
2022/05/11 10:04:12;;;;;;;0.10;0.10;;;;;;;23.97;31.89;99346.19;5068491;28;20036;-77
2022/05/11 10:06:52;;;;;;;0.00;0.00;;;;;;;24.01;32.70;99346.28;5068910;28;20032;-79
2022/05/11 10:09:29;;;;;;;0.00;0.00;;;;;;;24.07;31.77;99336.63;5068766;28;20094;-77
2022/05/11 10:11:54;;;;;;;0.00;0.00;;;;;;;24.05;31.32;99345.19;5068501;28;20028;-77
2022/05/11 10:22:59;;;;;;;0.15;0.15;;;;;;;23.92;33.13;99332.81;5015740;28;20169;-77
2022/05/11 10:25:38;;;;;;;0.05;0.05;;;;;;;24.01;33.64;99332.63;5068546;28;20029;-77
2022/05/11 10:28:28;;;;;;;0.47;0.47;;;;;;;24.05;33.72;99323.34;5068149;28;20033;-78
2022/05/11 10:30:56;;;;;;;0.10;0.10;;;;;;;24.01;32.61;99327.16;5068232;28;20033;-77
2022/05/11 10:33:31;;;;;;;0.00;0.00;;;;;;;23.95;33.12;99316.53;5068324;28;20492;-77
2022/05/11 10:36:13;;;;;;;0.40;0.40;;;;;;;23.87;32.65;99331.16;5068003;28;20059;-78
2022/05/11 10:39:02;;;;;;;0.00;0.00;;;;;;;23.79;32.55;99318.50;5068125;28;20615;-81
2022/05/11 10:41:58;;;;;;;0.00;0.00;;;;;;;23.81;33.83;99313.47;5067895;28;20053;-79
2022/05/11 10:44:51;;;;;;;0.00;0.00;;;;;;;23.83;33.22;99324.84;5052380;28;20056;-78
2022/05/11 10:47:38;;;;;;;0.00;0.00;;;;;;;23.79;33.54;99315.75;5051294;28;20055;-79
2022/05/11 10:50:31;;;;;;;0.22;0.22;;;;;;;23.80;33.39;99314.63;5051443;28;20130;-80
2022/05/11 10:53:15;;;;;;;0.10;0.10;;;;;;;23.81;33.60;99305.28;5067642;28;20037;-79
2022/05/11 10:55:58;;;;;;;0.00;0.00;;;;;;;23.88;33.19;99310.88;5067955;28;20025;-79
2022/05/11 10:58:42;;;;;;;0.10;0.10;;;;;;;23.94;32.96;99311.44;5067784;28;20029;-79
2022/05/11 11:01:16;;;;;;;0.35;0.35;;;;;;;24.07;34.21;99301.13;5067399;28;20032;-78
2022/05/11 11:04:25;;;;;;;0.10;0.10;;;;;;;24.21;33.41;99295.16;5050756;28;20068;-79
2022/05/11 11:07:12;;;;;;;1.23;0.30;;;;;;;24.37;33.47;99295.06;5067639;28;20029;-78
2022/05/11 11:09:53;;;;;;;0.10;0.10;;;;;;;24.54;34.65;99296.53;5067717;28;20036;-78
2022/05/11 11:12:24;;;;;;;0.00;0.00;;;;;;;24.72;33.92;99291.41;5052292;28;20033;-79
2022/05/11 11:14:54;;;;;;;0.25;0.05;;;;;;;24.77;32.82;99291.09;5067145;28;20041;-79
2022/05/11 11:17:24;;;;;;;0.10;0.10;;;;;;;24.81;31.92;99294.66;5067495;28;20021;-79
2022/05/11 11:19:53;;;;;;;0.00;0.00;;;;;;;24.71;31.72;99298.78;5067627;28;20040;-78
2022/05/11 11:22:19;;;;;;;0.08;0.08;;;;;;;24.70;33.33;99293.69;5067355;28;20268;-78
2022/05/11 11:25:12;;;;;;;0.10;0.10;;;;;;;24.73;32.92;99298.41;5066949;28;20111;-78
2022/05/11 11:28:12;;;;;;;0.10;0.10;;;;;;;24.70;32.85;99299.16;5022686;28;20039;-78
2022/05/11 11:30:39;;;;;;;0.00;0.00;;;;;;;24.75;33.15;99299.63;5036225;28;20040;-77
2022/05/11 11:33:15;;;;;;;0.00;0.00;;;;;;;24.69;31.87;99294.84;5067045;28;20418;-78
2022/05/11 11:36:19;;;;;;;0.00;0.00;;;;;;;24.73;31.95;99299.22;5067064;28;20546;-78
2022/05/11 11:38:47;;;;;;;0.10;0.10;;;;;;;24.75;32.55;99296.13;4989869;28;20118;-78
2022/05/11 11:41:12;;;;;;;;;;;;;;;24.64;30.94;99301.38;4973699;28;20057;-77
2022/05/11 11:43:50;;;;;;;0.05;0.05;;;;;;;24.48;31.95;99308.91;5018704;28;19940;-78
2022/05/11 11:46:44;;;;;;;0.20;0.20;;;;;;;24.34;32.00;99290.31;5066692;28;20021;-78
2022/05/11 11:49:19;;;;;;;0.25;0.25;;;;;;;24.23;32.46;99279.97;5047246;28;20040;-79
2022/05/11 11:51:50;;;;;;;0.10;0.10;;;;;;;24.26;33.81;99278.47;5067005;28;20453;-79
2022/05/11 11:54:37;;;;;;;0.43;0.43;;;;;;;24.34;33.60;99282.91;5066605;28;20113;-79
2022/05/11 11:57:06;;;;;;;0.20;0.20;;;;;;;24.22;33.07;99269.41;5066595;28;20378;-79
2022/05/11 11:59:34;;;;;;;0.30;0.30;;;;;;;24.20;33.52;99279.91;5066958;28;20101;-79
2022/05/11 12:02:05;;;;;;;0.10;0.10;;;;;;;24.22;33.50;99269.41;5066359;28;20503;-78
2022/05/11 12:05:00;;;;;;;0.10;0.10;;;;;;;24.19;33.54;99264.66;5066662;28;20041;-79
2022/05/11 12:16:56;;;;;;;0.00;0.00;;;;;;;23.98;34.78;99255.69;5051090;28;20282;-78
2022/05/11 12:19:24;;;;;;;0.10;0.10;;;;;;;23.96;34.54;99246.28;5049673;28;20033;-78
2022/05/11 12:22:19;;;;;;;0.20;0.20;;;;;;;24.01;34.88;99237.00;5066644;28;20108;-78
2022/05/11 12:24:48;;;;;;;0.20;0.20;;;;;;;24.04;34.76;99237.06;5066918;28;20032;-78
2022/05/11 12:27:30;;;;;;;0.10;0.10;;;;;;;24.22;35.41;99233.91;5049842;28;20029;-78
2022/05/11 12:30:07;;;;;;;0.15;0.15;;;;;;;24.32;34.33;99232.50;5066659;28;20126;-78
2022/05/11 12:32:42;;;;;;;3.20;0.87;;;;;;;24.37;33.82;99238.44;5066863;28;20029;-78